Time;durP1;ratioP1;P1;durP2;ratioP2;P2;SDS_P1;SDS_P2;PMS_P1;PMS_P2;Temp;Humidity;BMP_temperature;BMP_pressure;BME280_temperature;BME280_humidity;BME280_pressure;Samples;Min_cycle;Max_cycle;Signal;HPM_P1;HPM_P2
2022/10/10 00:00:37;;;;;;;10.05;5.43;;;;;;;;;;5052126;28;20049;-63
2022/10/10 00:03:04;;;;;;;7.68;4.80;;;;;;;;;;5052248;28;20049;-63
2022/10/10 00:05:31;;;;;;;8.60;4.85;;;;;;;;;;5052178;28;20072;-63
2022/10/10 00:07:57;;;;;;;9.52;4.95;;;;;;;;;;5052092;28;20500;-63
2022/10/10 00:10:24;;;;;;;6.78;5.32;;;;;;;;;;5051918;28;20183;-63
2022/10/10 00:12:51;;;;;;;8.13;4.90;;;;;;;;;;5051648;28;20057;-63
2022/10/10 00:15:18;;;;;;;10.30;5.38;;;;;;;;;;5051705;28;20045;-63
2022/10/10 00:17:45;;;;;;;9.35;5.25;;;;;;;;;;5052015;28;20099;-63
2022/10/10 00:20:13;;;;;;;14.02;5.88;;;;;;;;;;5052011;28;20045;-63
2022/10/10 00:22:40;;;;;;;7.60;5.00;;;;;;;;;;5052036;28;20052;-63
2022/10/10 00:25:07;;;;;;;7.78;6.22;;;;;;;;;;5051917;28;20049;-63
2022/10/10 00:27:35;;;;;;;8.77;5.22;;;;;;;;;;5051686;28;20053;-63
2022/10/10 00:30:03;;;;;;;6.60;4.38;;;;;;;;;;5051835;28;20477;-63
2022/10/10 00:32:29;;;;;;;8.68;4.95;;;;;;;;;;5051838;28;20049;-63
2022/10/10 00:34:56;;;;;;;8.05;5.28;;;;;;;;;;5051667;28;20103;-63
2022/10/10 00:37:22;;;;;;;7.13;5.63;;;;;;;;;;5051727;28;20662;-63
2022/10/10 00:39:49;;;;;;;5.70;4.93;;;;;;;;;;5051519;28;20049;-63
2022/10/10 00:42:16;;;;;;;7.25;4.97;;;;;;;;;;5051530;28;20049;-63
2022/10/10 00:44:45;;;;;;;6.43;5.22;;;;;;;;;;5051800;28;20053;-63
2022/10/10 00:47:12;;;;;;;6.75;4.95;;;;;;;;;;5050406;28;20557;-63
2022/10/10 00:49:40;;;;;;;7.18;5.15;;;;;;;;;;5051281;28;20049;-63
2022/10/10 00:52:11;;;;;;;6.47;5.20;;;;;;;;;;5050429;28;20049;-63
2022/10/10 00:54:38;;;;;;;6.30;5.70;;;;;;;;;;5034544;28;20495;-63
2022/10/10 00:57:09;;;;;;;8.75;5.63;;;;;;;;;;5051402;28;20085;-63
2022/10/10 00:59:36;;;;;;;8.13;5.60;;;;;;;;;;5034063;28;20558;-63
2022/10/10 01:02:03;;;;;;;8.45;5.43;;;;;;;;;;5050491;28;20045;-63
2022/10/10 01:04:37;;;;;;;6.43;5.50;;;;;;;;;;5053357;28;20069;-62
2022/10/10 01:07:17;;;;;;;6.13;4.90;;;;;;;;;;5055568;28;20049;-63
2022/10/10 01:09:44;;;;;;;8.88;5.47;;;;;;;;;;5038093;28;20053;-63
2022/10/10 01:12:34;;;;;;;7.18;5.32;;;;;;;;;;5054704;28;20053;-63
2022/10/10 01:15:36;;;;;;;5.22;4.72;;;;;;;;;;5054175;28;20095;-63
2022/10/10 01:18:12;;;;;;;7.50;5.45;;;;;;;;;;5054095;28;20077;-63
2022/10/10 01:21:02;;;;;;;7.93;5.07;;;;;;;;;;5055152;28;20095;-62
2022/10/10 01:23:38;;;;;;;6.20;5.13;;;;;;;;;;5037940;28;20094;-63
2022/10/10 01:26:29;;;;;;;6.97;5.00;;;;;;;;;;5055069;28;20072;-63
2022/10/10 01:29:16;;;;;;;7.07;4.90;;;;;;;;;;5055162;28;20106;-63
2022/10/10 01:31:44;;;;;;;6.72;4.93;;;;;;;;;;5054040;28;20102;-63
2022/10/10 01:34:13;;;;;;;6.28;5.22;;;;;;;;;;5037184;28;20049;-63
2022/10/10 01:36:47;;;;;;;6.57;5.00;;;;;;;;;;5054685;28;20509;-63
2022/10/10 01:39:29;;;;;;;6.13;5.05;;;;;;;;;;5053381;28;20088;-63
2022/10/10 01:42:00;;;;;;;8.10;5.93;;;;;;;;;;5038154;28;20092;-63
2022/10/10 01:44:27;;;;;;;7.43;5.00;;;;;;;;;;5054688;28;20049;-63
2022/10/10 01:46:53;;;;;;;9.60;5.38;;;;;;;;;;5053445;28;20132;-64
2022/10/10 01:49:22;;;;;;;7.43;5.50;;;;;;;;;;5054578;28;20074;-63
2022/10/10 01:52:12;;;;;;;6.55;5.22;;;;;;;;;;5053696;28;20167;-63
2022/10/10 01:54:52;;;;;;;7.38;5.25;;;;;;;;;;5053519;28;20084;-63
2022/10/10 01:57:44;;;;;;;11.95;6.05;;;;;;;;;;5053436;28;20075;-64
2022/10/10 02:00:12;;;;;;;7.65;5.95;;;;;;;;;;5043706;28;20080;-64
2022/10/10 02:02:41;;;;;;;6.35;5.65;;;;;;;;;;5053242;28;20114;-64
2022/10/10 02:05:27;;;;;;;8.23;5.43;;;;;;;;;;5053391;28;20053;-63
2022/10/10 02:07:59;;;;;;;9.02;6.25;;;;;;;;;;5038979;28;20140;-64
2022/10/10 02:10:28;;;;;;;9.32;6.00;;;;;;;;;;5053372;28;20099;-63
2022/10/10 02:12:55;;;;;;;7.88;6.72;;;;;;;;;;5054377;28;20155;-63
2022/10/10 02:15:23;;;;;;;9.25;6.22;;;;;;;;;;5052409;28;20584;-64
2022/10/10 02:17:50;;;;;;;9.55;6.50;;;;;;;;;;5036284;28;20045;-64
2022/10/10 02:20:21;;;;;;;8.80;5.95;;;;;;;;;;5052800;28;20076;-64
2022/10/10 02:22:49;;;;;;;9.52;5.82;;;;;;;;;;5052886;28;20167;-63
2022/10/10 02:25:18;;;;;;;8.05;6.07;;;;;;;;;;5036645;28;20103;-63
2022/10/10 02:28:03;;;;;;;7.32;6.10;;;;;;;;;;5052857;28;20136;-63
2022/10/10 02:30:32;;;;;;;9.68;6.00;;;;;;;;;;5053072;28;20060;-63
2022/10/10 02:33:00;;;;;;;9.20;5.70;;;;;;;;;;5036508;28;20049;-62
2022/10/10 02:35:31;;;;;;;8.20;5.93;;;;;;;;;;5052638;28;20567;-60
2022/10/10 02:37:58;;;;;;;9.20;5.55;;;;;;;;;;5052348;28;20134;-63
2022/10/10 02:40:27;;;;;;;9.35;6.07;;;;;;;;;;5036071;28;20048;-63
2022/10/10 02:42:54;;;;;;;9.45;6.30;;;;;;;;;;5052449;28;20049;-63
2022/10/10 02:45:20;;;;;;;7.93;5.85;;;;;;;;;;5035896;28;20140;-63
2022/10/10 02:47:47;;;;;;;8.77;6.15;;;;;;;;;;5036040;28;20081;-63
2022/10/10 02:50:14;;;;;;;10.65;5.88;;;;;;;;;;5053618;28;20048;-63
2022/10/10 02:52:40;;;;;;;8.45;6.28;;;;;;;;;;5053532;28;20088;-63
2022/10/10 02:55:07;;;;;;;6.82;5.57;;;;;;;;;;5053459;28;20088;-63
2022/10/10 02:57:34;;;;;;;8.93;6.10;;;;;;;;;;5053214;28;20040;-63
2022/10/10 03:00:00;;;;;;;10.32;6.28;;;;;;;;;;5053250;28;20084;-63
2022/10/10 03:02:27;;;;;;;9.50;6.05;;;;;;;;;;5053484;28;20053;-63
2022/10/10 03:04:53;;;;;;;9.50;6.40;;;;;;;;;;5053343;28;20080;-63
2022/10/10 03:07:20;;;;;;;8.38;6.10;;;;;;;;;;5053327;28;20311;-63
2022/10/10 03:09:47;;;;;;;8.60;7.00;;;;;;;;;;5052875;28;20132;-63
2022/10/10 03:12:13;;;;;;;7.95;5.75;;;;;;;;;;5053741;28;20092;-63
2022/10/10 03:14:40;;;;;;;7.85;6.15;;;;;;;;;;5052890;28;20518;-63
2022/10/10 03:17:06;;;;;;;7.72;5.97;;;;;;;;;;5052961;28;20128;-63
2022/10/10 03:19:33;;;;;;;9.90;6.63;;;;;;;;;;5052809;28;20479;-63
2022/10/10 03:21:59;;;;;;;8.80;6.07;;;;;;;;;;5052922;28;20049;-63
2022/10/10 03:24:26;;;;;;;10.32;6.43;;;;;;;;;;5052741;28;20503;-63
2022/10/10 03:26:53;;;;;;;8.90;6.53;;;;;;;;;;5052966;28;20083;-63
2022/10/10 03:29:19;;;;;;;10.25;6.35;;;;;;;;;;5052455;28;20048;-63
2022/10/10 03:31:46;;;;;;;10.38;6.15;;;;;;;;;;5052252;28;20144;-63
2022/10/10 03:34:13;;;;;;;10.13;6.47;;;;;;;;;;5051157;28;20053;-64
2022/10/10 03:36:39;;;;;;;9.90;6.30;;;;;;;;;;5052680;28;20123;-63
2022/10/10 03:39:08;;;;;;;9.77;6.28;;;;;;;;;;5052394;28;20052;-63
2022/10/10 03:41:35;;;;;;;7.60;6.75;;;;;;;;;;5052540;28;20148;-62
2022/10/10 03:44:01;;;;;;;10.30;6.93;;;;;;;;;;5052730;28;20053;-63
2022/10/10 03:46:28;;;;;;;12.27;6.97;;;;;;;;;;5052817;28;20045;-63
2022/10/10 03:48:55;;;;;;;10.60;7.25;;;;;;;;;;5052426;28;20088;-62
2022/10/10 03:51:21;;;;;;;11.93;6.50;;;;;;;;;;5052551;28;20076;-63
2022/10/10 03:53:48;;;;;;;13.35;7.55;;;;;;;;;;5052281;28;20443;-62
2022/10/10 03:56:15;;;;;;;10.38;6.90;;;;;;;;;;5052535;28;20088;-62
2022/10/10 03:58:41;;;;;;;9.55;6.40;;;;;;;;;;5052161;28;20103;-62
2022/10/10 04:01:08;;;;;;;9.38;6.07;;;;;;;;;;5052201;28;20049;-63
2022/10/10 04:03:35;;;;;;;7.72;5.57;;;;;;;;;;5052188;28;20519;-63
2022/10/10 04:06:01;;;;;;;10.82;7.43;;;;;;;;;;5052272;28;20049;-63
2022/10/10 04:08:29;;;;;;;10.35;6.97;;;;;;;;;;5051908;28;20150;-64
2022/10/10 04:10:56;;;;;;;9.68;6.85;;;;;;;;;;5052110;28;20049;-63
2022/10/10 04:13:24;;;;;;;8.68;6.75;;;;;;;;;;5051778;28;20088;-63
2022/10/10 04:15:52;;;;;;;8.55;6.60;;;;;;;;;;5052083;28;20136;-63
2022/10/10 04:18:18;;;;;;;11.52;7.53;;;;;;;;;;5051889;28;20479;-63
2022/10/10 04:20:45;;;;;;;8.65;7.05;;;;;;;;;;5051891;28;20091;-63
2022/10/10 04:23:12;;;;;;;10.27;7.80;;;;;;;;;;5051916;28;20080;-63
2022/10/10 04:25:38;;;;;;;8.57;6.78;;;;;;;;;;5052202;28;20053;-65
2022/10/10 04:28:05;;;;;;;9.85;7.40;;;;;;;;;;5051704;28;20088;-63
2022/10/10 04:30:33;;;;;;;10.73;7.30;;;;;;;;;;5052012;28;20049;-63
2022/10/10 04:32:59;;;;;;;14.80;7.78;;;;;;;;;;5051925;28;20504;-63
2022/10/10 04:35:26;;;;;;;13.25;7.18;;;;;;;;;;5051670;28;20115;-63
2022/10/10 04:37:53;;;;;;;14.98;7.07;;;;;;;;;;5051783;28;20045;-64
2022/10/10 04:40:19;;;;;;;11.98;7.72;;;;;;;;;;5051565;28;20092;-63
2022/10/10 04:42:53;;;;;;;12.30;7.87;;;;;;;;;;5051874;28;20060;-63
2022/10/10 04:45:20;;;;;;;9.05;7.53;;;;;;;;;;5051764;28;20110;-63
2022/10/10 04:47:47;;;;;;;13.38;8.48;;;;;;;;;;5051474;28;20049;-64
2022/10/10 04:50:13;;;;;;;27.67;15.88;;;;;;;;;;5051799;28;20396;-64
2022/10/10 04:52:40;;;;;;;17.65;10.82;;;;;;;;;;5051849;28;20049;-63
2022/10/10 04:55:07;;;;;;;12.82;9.07;;;;;;;;;;5051666;28;20110;-63
2022/10/10 04:57:33;;;;;;;12.65;7.95;;;;;;;;;;5051780;28;20077;-63
2022/10/10 05:00:00;;;;;;;10.57;7.93;;;;;;;;;;5051338;28;20123;-62
2022/10/10 05:02:26;;;;;;;14.88;7.72;;;;;;;;;;5051518;28;20080;-63
2022/10/10 05:04:53;;;;;;;11.00;8.43;;;;;;;;;;5051669;28;20057;-63
2022/10/10 05:07:20;;;;;;;11.52;8.18;;;;;;;;;;5051631;28;20132;-63
2022/10/10 05:09:46;;;;;;;9.55;7.28;;;;;;;;;;5051264;28;20083;-63
2022/10/10 05:12:13;;;;;;;11.73;7.70;;;;;;;;;;5051678;28;20480;-62
2022/10/10 05:14:39;;;;;;;8.55;6.85;;;;;;;;;;5050660;28;20566;-64
2022/10/10 05:17:12;;;;;;;12.70;7.85;;;;;;;;;;5051860;28;20053;-63
2022/10/10 05:19:39;;;;;;;13.10;7.40;;;;;;;;;;5051084;28;20095;-63
2022/10/10 05:22:06;;;;;;;11.02;7.57;;;;;;;;;;5052095;28;20554;-64
2022/10/10 05:24:33;;;;;;;10.07;6.93;;;;;;;;;;5052962;28;20053;-64
2022/10/10 05:27:00;;;;;;;14.68;7.88;;;;;;;;;;5051333;28;20128;-64
2022/10/10 05:29:27;;;;;;;14.50;8.10;;;;;;;;;;5051059;28;20140;-64
2022/10/10 05:31:53;;;;;;;15.60;8.30;;;;;;;;;;5051420;28;20130;-63
2022/10/10 05:34:20;;;;;;;11.82;7.57;;;;;;;;;;5051635;28;20128;-64
2022/10/10 05:36:47;;;;;;;11.70;7.45;;;;;;;;;;5051272;28;20092;-63
2022/10/10 05:39:13;;;;;;;10.98;7.57;;;;;;;;;;5051081;28;20503;-63
2022/10/10 05:41:40;;;;;;;13.93;8.07;;;;;;;;;;5051193;28;20303;-63
2022/10/10 05:44:06;;;;;;;9.68;7.20;;;;;;;;;;5050861;28;20083;-64
2022/10/10 05:46:33;;;;;;;10.40;7.95;;;;;;;;;;5051459;28;20132;-63
2022/10/10 05:48:59;;;;;;;9.98;7.30;;;;;;;;;;5050978;28;20504;-63
2022/10/10 05:51:26;;;;;;;12.70;7.50;;;;;;;;;;5053167;28;20080;-64
2022/10/10 05:53:53;;;;;;;10.65;7.78;;;;;;;;;;5054620;28;20095;-63
2022/10/10 05:56:19;;;;;;;13.02;8.27;;;;;;;;;;5054746;28;20124;-63
2022/10/10 05:58:46;;;;;;;10.35;7.22;;;;;;;;;;5054271;28;20091;-63
2022/10/10 06:01:12;;;;;;;9.80;7.50;;;;;;;;;;5054748;28;20084;-64
2022/10/10 06:03:39;;;;;;;10.23;7.70;;;;;;;;;;5054448;28;20098;-63
2022/10/10 06:06:06;;;;;;;12.25;7.88;;;;;;;;;;5054545;28;20473;-63
2022/10/10 06:08:32;;;;;;;14.95;8.32;;;;;;;;;;5054377;28;20076;-63
2022/10/10 06:11:09;;;;;;;12.68;8.40;;;;;;;;;;5054601;28;20087;-63
2022/10/10 06:13:37;;;;;;;11.63;7.68;;;;;;;;;;5054178;28;20053;-63
2022/10/10 06:16:04;;;;;;;10.05;7.55;;;;;;;;;;5054188;28;20571;-63
2022/10/10 06:18:30;;;;;;;15.38;7.57;;;;;;;;;;5054032;28;20084;-63
2022/10/10 06:21:04;;;;;;;13.93;7.75;;;;;;;;;;5054153;28;20130;-63
2022/10/10 06:23:32;;;;;;;12.18;6.80;;;;;;;;;;5054060;28;20076;-64
2022/10/10 06:25:58;;;;;;;9.77;7.10;;;;;;;;;;5054058;28;20143;-63
2022/10/10 06:28:25;;;;;;;13.70;8.15;;;;;;;;;;5054006;28;20099;-63
2022/10/10 06:30:51;;;;;;;12.40;8.50;;;;;;;;;;5053931;28;20080;-63
2022/10/10 06:33:18;;;;;;;12.82;8.70;;;;;;;;;;5054158;28;20139;-63
2022/10/10 06:35:46;;;;;;;9.80;7.40;;;;;;;;;;5054232;28;20049;-63
2022/10/10 06:38:14;;;;;;;11.35;7.40;;;;;;;;;;5053709;28;20458;-63
2022/10/10 06:40:41;;;;;;;16.90;9.27;;;;;;;;;;5053784;28;20052;-62
2022/10/10 06:43:10;;;;;;;15.23;8.93;;;;;;;;;;5053813;28;20053;-64
2022/10/10 06:45:39;;;;;;;13.75;7.65;;;;;;;;;;5053875;28;20048;-62
2022/10/10 06:48:05;;;;;;;10.35;8.05;;;;;;;;;;5053516;28;20565;-62
2022/10/10 06:50:32;;;;;;;10.88;6.50;;;;;;;;;;5053633;28;20092;-63
2022/10/10 06:52:59;;;;;;;9.73;6.57;;;;;;;;;;5053738;28;20053;-62
2022/10/10 06:55:25;;;;;;;13.27;7.05;;;;;;;;;;5053722;28;20083;-63
2022/10/10 06:57:53;;;;;;;9.70;7.05;;;;;;;;;;5053255;28;20530;-63
2022/10/10 07:00:19;;;;;;;11.43;7.40;;;;;;;;;;5053515;28;20080;-62
2022/10/10 07:02:46;;;;;;;11.68;7.35;;;;;;;;;;5053163;28;20052;-64
2022/10/10 07:05:17;;;;;;;14.82;8.02;;;;;;;;;;5053302;28;20076;-63
2022/10/10 07:07:44;;;;;;;9.13;6.95;;;;;;;;;;5052211;28;20102;-64
2022/10/10 07:10:12;;;;;;;10.15;6.93;;;;;;;;;;5053131;28;20462;-65
2022/10/10 07:12:39;;;;;;;8.52;7.40;;;;;;;;;;5053395;28;20135;-65
2022/10/10 07:15:10;;;;;;;8.48;7.22;;;;;;;;;;5052639;28;20280;-64
2022/10/10 07:17:37;;;;;;;13.82;7.90;;;;;;;;;;5053432;28;20068;-65
2022/10/10 07:20:04;;;;;;;13.48;7.95;;;;;;;;;;5052786;28;20053;-63
2022/10/10 07:22:31;;;;;;;12.75;7.00;;;;;;;;;;5053268;28;20110;-65
2022/10/10 07:24:57;;;;;;;11.65;7.57;;;;;;;;;;5053125;28;20080;-64
2022/10/10 07:27:24;;;;;;;11.35;7.15;;;;;;;;;;5053260;28;20128;-62
2022/10/10 07:29:50;;;;;;;12.02;7.80;;;;;;;;;;5052763;28;20135;-63
2022/10/10 07:32:17;;;;;;;9.27;6.70;;;;;;;;;;5052857;28;20088;-63
2022/10/10 07:34:43;;;;;;;10.65;7.18;;;;;;;;;;5052607;28;20071;-63
2022/10/10 07:37:10;;;;;;;11.93;6.78;;;;;;;;;;5053143;28;20098;-62
2022/10/10 07:39:36;;;;;;;9.18;6.50;;;;;;;;;;5052672;28;20279;-62
2022/10/10 07:42:03;;;;;;;10.25;6.63;;;;;;;;;;5052576;28;20091;-63
2022/10/10 07:44:30;;;;;;;8.57;6.45;;;;;;;;;;5052469;28;20420;-63
2022/10/10 07:47:00;;;;;;;12.50;6.18;;;;;;;;;;5052792;28;20048;-63
2022/10/10 07:49:26;;;;;;;6.18;5.38;;;;;;;;;;5052237;28;20049;-63
2022/10/10 07:51:53;;;;;;;10.38;5.40;;;;;;;;;;5052650;28;20057;-63
2022/10/10 07:54:26;;;;;;;12.60;5.20;;;;;;;;;;5052371;28;20432;-63
2022/10/10 07:56:52;;;;;;;9.85;6.05;;;;;;;;;;5052537;28;20080;-63
2022/10/10 07:59:19;;;;;;;8.95;6.95;;;;;;;;;;5051945;28;20527;-62
2022/10/10 08:01:46;;;;;;;13.50;5.43;;;;;;;;;;5052201;28;20140;-63
2022/10/10 08:04:12;;;;;;;9.82;5.28;;;;;;;;;;5052185;28;20083;-63
2022/10/10 08:06:39;;;;;;;9.40;5.05;;;;;;;;;;5052391;28;20045;-61
2022/10/10 08:09:06;;;;;;;10.63;5.80;;;;;;;;;;5051956;28;20095;-64
2022/10/10 08:11:32;;;;;;;8.80;5.40;;;;;;;;;;5052077;28;20579;-62
2022/10/10 08:13:59;;;;;;;8.65;5.53;;;;;;;;;;5051573;28;20514;-63
2022/10/10 08:16:25;;;;;;;9.05;5.65;;;;;;;;;;5052075;28;20095;-64
2022/10/10 08:18:52;;;;;;;9.07;5.82;;;;;;;;;;5051935;28;20132;-63
2022/10/10 08:21:19;;;;;;;9.68;5.40;;;;;;;;;;5051979;28;20553;-63
2022/10/10 08:23:45;;;;;;;6.22;4.57;;;;;;;;;;5051860;28;20424;-63
2022/10/10 08:26:14;;;;;;;6.47;4.40;;;;;;;;;;5051988;28;20048;-64
2022/10/10 08:28:40;;;;;;;7.57;4.57;;;;;;;;;;5051780;28;20454;-63
2022/10/10 08:31:09;;;;;;;8.90;4.78;;;;;;;;;;5051745;28;20415;-63
2022/10/10 08:33:36;;;;;;;7.25;4.55;;;;;;;;;;5051764;28;20506;-62
2022/10/10 08:36:10;;;;;;;7.55;4.57;;;;;;;;;;5051939;28;20099;-63
2022/10/10 08:38:37;;;;;;;5.85;4.38;;;;;;;;;;5051527;28;20589;-64
2022/10/10 08:41:19;;;;;;;7.63;4.75;;;;;;;;;;5051717;28;20084;-63
2022/10/10 08:43:55;;;;;;;6.88;4.32;;;;;;;;;;5035579;28;20553;-63
2022/10/10 08:46:49;;;;;;;5.90;4.10;;;;;;;;;;5050493;28;20175;-63
2022/10/10 08:49:33;;;;;;;5.88;4.00;;;;;;;;;;5051464;28;20634;-63
2022/10/10 08:52:28;;;;;;;7.85;4.25;;;;;;;;;;5050694;28;20427;-64
2022/10/10 08:54:55;;;;;;;8.50;4.45;;;;;;;;;;5050517;28;20091;-65
2022/10/10 08:57:28;;;;;;;6.90;4.05;;;;;;;;;;5050421;28;20056;-63
2022/10/10 09:00:02;;;;;;;7.72;4.13;;;;;;;;;;5034162;28;20083;-63
2022/10/10 09:02:37;;;;;;;7.05;4.18;;;;;;;;;;5034989;28;20122;-63
2022/10/10 09:06:04;;;;;;;10.50;4.78;;;;;;;;;;5050615;28;20052;-64
2022/10/10 09:08:42;;;;;;;8.43;4.05;;;;;;;;;;5039107;28;20053;-64
2022/10/10 09:11:34;;;;;;;8.52;4.07;;;;;;;;;;5050645;28;20072;-63
2022/10/10 09:14:25;;;;;;;6.82;3.13;;;;;;;;;;5049859;28;20087;-63
2022/10/10 09:16:59;;;;;;;4.82;3.55;;;;;;;;;;5051458;28;20519;-64
2022/10/10 09:19:32;;;;;;;5.53;3.20;;;;;;;;;;5050109;28;20068;-63
2022/10/10 09:22:00;;;;;;;7.30;3.67;;;;;;;;;;5052034;28;20530;-64
2022/10/10 09:24:44;;;;;;;5.32;3.35;;;;;;;;;;5034193;28;20052;-63
2022/10/10 09:27:16;;;;;;;3.63;2.92;;;;;;;;;;5055354;28;20136;-63
2022/10/10 09:29:56;;;;;;;7.33;3.30;;;;;;;;;;5054190;28;20049;-63
2022/10/10 09:32:26;;;;;;;7.05;3.00;;;;;;;;;;5055413;28;20280;-63
2022/10/10 09:35:20;;;;;;;6.00;3.08;;;;;;;;;;5038052;28;20045;-65
2022/10/10 09:37:49;;;;;;;5.47;2.88;;;;;;;;;;5040158;28;20049;-65
2022/10/10 09:40:28;;;;;;;6.15;2.70;;;;;;;;;;5055532;28;20057;-63
2022/10/10 09:42:54;;;;;;;3.20;2.60;;;;;;;;;;5038158;28;20139;-64
2022/10/10 09:45:28;;;;;;;8.05;3.30;;;;;;;;;;5054942;28;20088;-62
2022/10/10 09:47:55;;;;;;;7.28;3.40;;;;;;;;;;5053597;28;20492;-63
2022/10/10 09:50:22;;;;;;;6.05;2.80;;;;;;;;;;5055425;28;20119;-63
2022/10/10 09:52:49;;;;;;;10.32;3.85;;;;;;;;;;5037826;28;20052;-64
2022/10/10 09:55:19;;;;;;;4.78;3.40;;;;;;;;;;5054425;28;20083;-64
2022/10/10 09:57:46;;;;;;;6.63;2.92;;;;;;;;;;5055974;28;20139;-64
2022/10/10 10:00:25;;;;;;;5.03;3.30;;;;;;;;;;5054134;28;20053;-65
2022/10/10 10:03:13;;;;;;;7.22;2.97;;;;;;;;;;5055604;28;20092;-65
2022/10/10 10:05:41;;;;;;;6.50;3.03;;;;;;;;;;5054856;28;20056;-65
2022/10/10 10:08:18;;;;;;;4.28;3.05;;;;;;;;;;5053404;28;20539;-65
2022/10/10 10:10:45;;;;;;;8.80;3.50;;;;;;;;;;5054550;28;20056;-65
2022/10/10 10:13:13;;;;;;;8.00;3.15;;;;;;;;;;5053829;28;20561;-65
2022/10/10 10:15:41;;;;;;;8.30;3.10;;;;;;;;;;5037127;28;20080;-65
2022/10/10 10:18:20;;;;;;;5.18;3.20;;;;;;;;;;5036624;28;20502;-65
2022/10/10 10:20:50;;;;;;;5.40;3.45;;;;;;;;;;5037159;28;20098;-65
2022/10/10 10:23:33;;;;;;;9.40;3.28;;;;;;;;;;5054214;28;20103;-63
2022/10/10 10:26:02;;;;;;;6.93;3.03;;;;;;;;;;5053423;28;20132;-63
2022/10/10 10:28:29;;;;;;;6.03;2.55;;;;;;;;;;5054146;28;20044;-65
2022/10/10 10:30:56;;;;;;;6.20;3.25;;;;;;;;;;5054362;28;20136;-63
2022/10/10 10:33:45;;;;;;;5.38;3.22;;;;;;;;;;5054021;28;20081;-64
2022/10/10 10:36:18;;;;;;;5.97;3.17;;;;;;;;;;5052525;28;20141;-63
2022/10/10 10:38:49;;;;;;;5.20;2.83;;;;;;;;;;5053777;28;20098;-65
2022/10/10 10:41:38;;;;;;;6.45;2.83;;;;;;;;;;5053041;28;20419;-65
2022/10/10 10:44:20;;;;;;;7.03;3.00;;;;;;;;;;5053015;28;20049;-64
2022/10/10 10:46:50;;;;;;;5.47;2.58;;;;;;;;;;5053016;28;20140;-65
2022/10/10 10:49:45;;;;;;;7.03;2.63;;;;;;;;;;5053720;28;20095;-63
2022/10/10 10:52:28;;;;;;;3.03;2.28;;;;;;;;;;5037850;28;20486;-65
2022/10/10 10:54:54;;;;;;;4.28;2.63;;;;;;;;;;5052545;28;20118;-64
2022/10/10 10:57:26;;;;;;;6.32;2.50;;;;;;;;;;5054007;28;20049;-64
2022/10/10 11:00:16;;;;;;;2.85;2.17;;;;;;;;;;5053509;28;20131;-65
2022/10/10 11:03:20;;;;;;;2.90;2.40;;;;;;;;;;5053632;28;20053;-63
2022/10/10 11:06:22;;;;;;;5.75;2.50;;;;;;;;;;5053600;28;20518;-63
2022/10/10 11:09:07;;;;;;;4.53;2.58;;;;;;;;;;5052194;28;20077;-64
2022/10/10 11:12:22;;;;;;;5.40;1.92;;;;;;;;;;5052737;28;20056;-63
2022/10/10 11:15:26;;;;;;;3.42;2.15;;;;;;;;;;5051610;28;20053;-63
2022/10/10 11:18:28;;;;;;;3.40;1.88;;;;;;;;;;5052981;28;20045;-64
2022/10/10 11:21:08;;;;;;;7.50;2.37;;;;;;;;;;5051960;28;20084;-63
2022/10/10 11:23:55;;;;;;;2.55;1.88;;;;;;;;;;5051951;28;20088;-66
2022/10/10 11:26:34;;;;;;;6.55;2.10;;;;;;;;;;5037024;28;20049;-62
2022/10/10 11:29:12;;;;;;;6.47;2.03;;;;;;;;;;5035774;28;20175;-64
2022/10/10 11:31:54;;;;;;;5.15;2.15;;;;;;;;;;5051791;28;20144;-64
2022/10/10 11:34:25;;;;;;;3.85;1.60;;;;;;;;;;5051748;28;20305;-64
2022/10/10 11:36:53;;;;;;;3.83;1.67;;;;;;;;;;5051893;28;20080;-65
2022/10/10 11:39:23;;;;;;;5.38;2.47;;;;;;;;;;5051249;28;20162;-64
2022/10/10 11:41:58;;;;;;;3.58;1.60;;;;;;;;;;5035268;28;20111;-64
2022/10/10 11:44:31;;;;;;;5.03;2.25;;;;;;;;;;5051543;28;20049;-64
2022/10/10 11:47:06;;;;;;;4.60;2.10;;;;;;;;;;5051700;28;20446;-64
2022/10/10 11:49:41;;;;;;;3.60;1.65;;;;;;;;;;5050302;28;20099;-64
2022/10/10 11:52:19;;;;;;;4.70;2.58;;;;;;;;;;5051692;28;20087;-63
2022/10/10 11:55:08;;;;;;;4.65;1.80;;;;;;;;;;5052360;28;20511;-64
2022/10/10 11:57:46;;;;;;;4.07;1.92;;;;;;;;;;5052663;28;20127;-64
2022/10/10 12:00:14;;;;;;;4.22;2.08;;;;;;;;;;5035758;28;20077;-64
2022/10/10 12:02:41;;;;;;;5.05;1.70;;;;;;;;;;5052426;28;20071;-64
2022/10/10 12:05:27;;;;;;;4.57;1.67;;;;;;;;;;5052230;28;20049;-64
2022/10/10 12:08:05;;;;;;;7.45;2.20;;;;;;;;;;5050910;28;20488;-64
2022/10/10 12:10:38;;;;;;;6.78;2.33;;;;;;;;;;5052511;28;20048;-64
2022/10/10 12:13:33;;;;;;;5.30;2.03;;;;;;;;;;5034790;28;20050;-64
2022/10/10 12:16:05;;;;;;;4.43;2.15;;;;;;;;;;5052010;28;20106;-64
2022/10/10 12:18:52;;;;;;;8.32;1.95;;;;;;;;;;5034471;28;20119;-64
2022/10/10 12:21:24;;;;;;;3.47;1.52;;;;;;;;;;5034630;28;20128;-64
2022/10/10 12:24:03;;;;;;;4.38;1.80;;;;;;;;;;5050966;28;20135;-63
2022/10/10 12:26:51;;;;;;;8.27;2.03;;;;;;;;;;5050757;28;20107;-64
2022/10/10 12:29:40;;;;;;;7.57;2.00;;;;;;;;;;5051673;28;20092;-64
2022/10/10 12:32:12;;;;;;;7.57;2.03;;;;;;;;;;5051823;28;20106;-63
2022/10/10 12:34:48;;;;;;;9.13;2.10;;;;;;;;;;5051610;28;20106;-64
2022/10/10 12:37:26;;;;;;;3.17;1.70;;;;;;;;;;5052046;28;20088;-64
2022/10/10 12:40:00;;;;;;;5.53;1.88;;;;;;;;;;5051648;28;20084;-64
2022/10/10 12:42:32;;;;;;;5.85;2.03;;;;;;;;;;5051825;28;20083;-64
2022/10/10 12:44:59;;;;;;;8.82;1.80;;;;;;;;;;5051650;28;20114;-64
2022/10/10 12:47:31;;;;;;;6.22;2.22;;;;;;;;;;5034318;28;20120;-64
2022/10/10 12:50:21;;;;;;;5.10;1.98;;;;;;;;;;5051032;28;20052;-64
2022/10/10 12:52:51;;;;;;;3.75;2.22;;;;;;;;;;5050450;28;20052;-64
2022/10/10 12:55:31;;;;;;;6.38;2.45;;;;;;;;;;5052188;28;20080;-64
2022/10/10 12:58:02;;;;;;;7.65;2.10;;;;;;;;;;5033940;28;20467;-64
2022/10/10 13:00:42;;;;;;;6.93;2.10;;;;;;;;;;5052648;28;20126;-63
2022/10/10 13:03:27;;;;;;;6.88;2.25;;;;;;;;;;5054669;28;20131;-63
2022/10/10 13:05:55;;;;;;;7.80;2.40;;;;;;;;;;5040268;28;20508;-63
2022/10/10 13:08:23;;;;;;;3.40;2.17;;;;;;;;;;5037945;28;20049;-63
2022/10/10 13:11:08;;;;;;;7.00;2.70;;;;;;;;;;5038015;28;20087;-63
2022/10/10 13:13:35;;;;;;;9.93;2.17;;;;;;;;;;5055630;28;20081;-63
2022/10/10 13:16:13;;;;;;;4.18;1.90;;;;;;;;;;5054488;28;20128;-63
2022/10/10 13:18:56;;;;;;;6.28;2.13;;;;;;;;;;5055308;28;20470;-64
2022/10/10 13:21:23;;;;;;;5.03;2.08;;;;;;;;;;5055678;28;20127;-64
2022/10/10 13:23:51;;;;;;;4.88;2.08;;;;;;;;;;5055355;28;20147;-64
2022/10/10 13:26:48;;;;;;;5.97;2.28;;;;;;;;;;5054541;28;20172;-64
2022/10/10 13:29:35;;;;;;;5.07;2.55;;;;;;;;;;5038913;28;20080;-64
2022/10/10 13:32:23;;;;;;;3.58;2.03;;;;;;;;;;5053926;28;20132;-64
2022/10/10 13:34:56;;;;;;;3.97;1.85;;;;;;;;;;5053933;28;20135;-64
2022/10/10 13:37:23;;;;;;;7.38;2.50;;;;;;;;;;5037657;28;20084;-64
2022/10/10 13:39:50;;;;;;;7.40;2.45;;;;;;;;;;5053515;28;20084;-64
2022/10/10 13:42:37;;;;;;;8.60;2.25;;;;;;;;;;5037489;28;20107;-64
2022/10/10 13:45:30;;;;;;;5.00;2.13;;;;;;;;;;5053937;28;20412;-64
2022/10/10 13:48:00;;;;;;;5.68;2.13;;;;;;;;;;5054922;28;20053;-64
2022/10/10 13:50:34;;;;;;;5.20;2.25;;;;;;;;;;5055054;28;20044;-64
2022/10/10 13:53:25;;;;;;;5.47;2.00;;;;;;;;;;5054890;28;20076;-64
2022/10/10 13:55:58;;;;;;;6.72;1.80;;;;;;;;;;5054645;28;20041;-64
2022/10/10 13:58:30;;;;;;;8.13;2.20;;;;;;;;;;5054476;28;20566;-64
2022/10/10 14:00:59;;;;;;;7.10;2.28;;;;;;;;;;5037070;28;20045;-64
2022/10/10 14:03:26;;;;;;;5.70;2.60;;;;;;;;;;5054577;28;20135;-63
2022/10/10 14:05:53;;;;;;;6.03;2.17;;;;;;;;;;5053912;28;20084;-63
2022/10/10 14:08:23;;;;;;;4.05;2.30;;;;;;;;;;5054744;28;20141;-63
2022/10/10 14:10:56;;;;;;;10.18;2.55;;;;;;;;;;5037670;28;20123;-63
2022/10/10 14:13:24;;;;;;;8.18;3.00;;;;;;;;;;5054283;28;20467;-64
2022/10/10 14:15:51;;;;;;;7.80;3.05;;;;;;;;;;5053441;28;20049;-64
2022/10/10 14:18:23;;;;;;;7.80;2.38;;;;;;;;;;5052932;28;20049;-64
2022/10/10 14:20:50;;;;;;;9.95;2.65;;;;;;;;;;5054063;28;20128;-64
2022/10/10 14:23:17;;;;;;;7.57;2.58;;;;;;;;;;5054262;28;20110;-64
2022/10/10 14:25:45;;;;;;;8.98;2.53;;;;;;;;;;5054099;28;20059;-64
2022/10/10 14:28:24;;;;;;;8.98;2.20;;;;;;;;;;5052816;28;20574;-64
2022/10/10 14:30:51;;;;;;;7.13;2.25;;;;;;;;;;5052874;28;20095;-64
2022/10/10 14:33:18;;;;;;;7.47;2.33;;;;;;;;;;5054096;28;20080;-64
2022/10/10 14:35:46;;;;;;;10.30;2.53;;;;;;;;;;5053912;28;20099;-64
2022/10/10 14:38:13;;;;;;;11.70;2.03;;;;;;;;;;5052661;28;20049;-64
2022/10/10 14:40:44;;;;;;;9.68;2.40;;;;;;;;;;5053862;28;20124;-64
2022/10/10 14:43:12;;;;;;;12.23;2.25;;;;;;;;;;5053872;28;20095;-64
2022/10/10 14:45:39;;;;;;;8.65;2.25;;;;;;;;;;5053860;28;20048;-64
2022/10/10 14:48:05;;;;;;;11.65;2.30;;;;;;;;;;5053461;28;20140;-64
2022/10/10 14:50:34;;;;;;;15.10;2.28;;;;;;;;;;5053695;28;20496;-64
2022/10/10 14:53:01;;;;;;;10.80;3.00;;;;;;;;;;5053782;28;20053;-64
2022/10/10 14:55:27;;;;;;;6.43;2.25;;;;;;;;;;5053676;28;20049;-64
2022/10/10 14:57:54;;;;;;;6.57;1.90;;;;;;;;;;5053440;28;20045;-64
2022/10/10 15:00:22;;;;;;;9.23;3.47;;;;;;;;;;5053274;28;20088;-64
2022/10/10 15:02:49;;;;;;;9.60;2.38;;;;;;;;;;5053430;28;20095;-64
2022/10/10 15:05:16;;;;;;;10.40;2.60;;;;;;;;;;5053444;28;20049;-64